< Typhoon 200822 2009 Season Typhoon 200902 >
Typhoon 200901 (KUJIRA)
General InformationTrack Information on Google MapsDetailed Wind InformationAccess Analytics MapList of All Images || NewsDisaster Info.WeblogTrackbackTyphoon FrontTyphoon ImaginationResourceGoogle EarthGE AnimationAtom FeedGeoJSON
Detalied Best Track (Time Zone = UTC)
Year Month Day Hour Lat. Long. Pressure (hPa) Wind (kt) Class Image Chart
2009 5 1 12 12.8 124.1 1006 0 2 Image Chart
2009 5 1 18 12.9 124.2 1004 0 2 Image Chart
2009 5 2 00 13.0 124.3 1004 0 2 Image Chart
2009 5 2 06 13.2 124.4 1002 0 2 Image Chart
2009 5 2 12 13.3 124.5 1002 0 2 Image Chart
2009 5 2 18 13.4 124.6 1000 35 3 Image Chart
2009 5 3 00 13.7 124.7 996 40 3 Image Chart
2009 5 3 06 14.1 125.0 985 45 3 Image Chart
2009 5 3 12 14.5 125.5 980 55 4 Image Chart
2009 5 3 18 15.0 126.2 975 60 4 Image Chart
2009 5 4 00 15.7 127.4 970 65 5 Image Chart
2009 5 4 06 16.4 128.5 965 70 5 Image Chart
2009 5 4 12 16.8 129.6 950 80 5 Image Chart
2009 5 4 18 17.1 131.0 940 85 5 Image Chart
2009 5 5 00 17.6 132.7 940 85 5 Image Chart
2009 5 5 06 18.3 134.0 940 85 5 Image Chart
2009 5 5 12 18.8 135.3 950 80 5 Image Chart
2009 5 5 18 19.5 136.9 950 80 5 Image Chart
2009 5 6 00 20.4 138.2 955 75 5 Image Chart
2009 5 6 06 21.6 139.8 955 75 5 Image Chart
2009 5 6 12 23.0 141.3 965 70 5 Image Chart
2009 5 6 18 24.4 142.9 970 65 5 Image Chart
2009 5 7 00 26.0 144.0 980 55 4 Image Chart
2009 5 7 06 28.4 145.5 985 45 3 Image Chart
2009 5 7 12 30.2 147.3 990 35 3 Image Chart
2009 5 7 18 32.3 149.3 998 0 6 Image Chart
2009 5 8 00 34.4 151.1 1000 0 6 Image Chart
2009 5 8 06 36.1 152.7 1000 0 6 Image Chart
2009 5 8 12 37.8 154.6 1000 0 6 Image Chart
2009 5 8 18 40.6 156.4 998 0 6 Image Chart
2009 5 9 00 41.9 159.3 998 0 6 Image Chart
2009 5 9 06 43.0 161.8 998 0 6 Image Chart
2009 5 9 12 43.8 163.6 1000 0 6 Image Chart
2009 5 9 18 44.4 164.8 1000 0 6 Image Chart
2009 5 10 00 45.1 165.9 1002 0 6 Image Chart
2009 5 10 06 45.4 166.6 1002 0 6 Image Chart
2009 5 10 12 45.8 167.4 1002 0 6 Image Chart
2009 5 10 18 45.9 168.5 1002 0 6 Image Chart
2009 5 11 00 46.6 169.3 1006 0 6 Image Chart
2009 5 11 06 47.2 170.2 1008 0 6 Image Chart
2009 5 11 12 48.3 171.0 1008 0 6 Image Chart
2009 5 11 18 49.5 171.4 1008 0 6 Image Chart
2009 5 12 00 50.7 171.5 1010 0 6 Image Chart
2009 5 12 06 52.2 170.5 1010 0 6 Image Chart
2009 5 12 12 53.3 168.6 1010 0 6 Image Chart
2009 5 12 18 53.9 167.4 1010 0 6 Image Chart
2009 5 13 00 54.2 166.0 1012 0 6 Image Chart
2009 5 13 06 55.0 164.3 1014 0 6 Image Chart
Japan Meteorological Agency Best Track Data | Correction Date : 2009-06-12
< Typhoon 200822 2009 Season Typhoon 200902 >

Help